Time;durP1;ratioP1;P1;durP2;ratioP2;P2;SDS_P1;SDS_P2;PMS_P1;PMS_P2;Temp;Humidity;BMP_temperature;BMP_pressure;BME280_temperature;BME280_humidity;BME280_pressure;Samples;Min_cycle;Max_cycle;Signal;HPM_P1;HPM_P2
2023/06/05 00:01:17;;;;;;;0.40;0.40;;;;;;;;;;10358889;28;20225;-83
2023/06/05 00:06:18;;;;;;;0.40;0.40;;;;;;;;;;10349642;28;20287;-80
2023/06/05 00:11:19;;;;;;;0.32;0.32;;;;;;;;;;10351544;28;20964;-80
2023/06/05 00:16:20;;;;;;;0.30;0.30;;;;;;;;;;10365555;28;20263;-82
2023/06/05 00:21:22;;;;;;;1.35;0.38;;;;;;;;;;10340423;28;20229;-82
2023/06/05 00:26:23;;;;;;;0.35;0.35;;;;;;;;;;10367913;28;20345;-82
2023/06/05 00:31:26;;;;;;;0.50;0.50;;;;;;;;;;10373331;28;20214;-79
2023/06/05 00:36:28;;;;;;;1.65;0.40;;;;;;;;;;10365909;28;20792;-82
2023/06/05 00:41:31;;;;;;;0.43;0.43;;;;;;;;;;10319140;28;20222;-81
2023/06/05 00:46:33;;;;;;;0.52;0.52;;;;;;;;;;10356765;28;20316;-80
2023/06/05 00:51:34;;;;;;;0.40;0.40;;;;;;;;;;10363516;28;20229;-82
2023/06/05 00:56:35;;;;;;;0.52;0.52;;;;;;;;;;10367318;28;20291;-81
2023/06/05 01:01:37;;;;;;;0.85;0.40;;;;;;;;;;10368112;28;20918;-80
2023/06/05 01:06:40;;;;;;;1.15;0.50;;;;;;;;;;10343396;28;20498;-82
2023/06/05 01:11:50;;;;;;;1.48;0.40;;;;;;;;;;10355546;28;20230;-83
2023/06/05 01:16:53;;;;;;;0.65;0.30;;;;;;;;;;10367421;28;20295;-82
2023/06/05 01:21:55;;;;;;;0.57;0.57;;;;;;;;;;10345692;28;20429;-82
2023/06/05 01:27:03;;;;;;;0.50;0.40;;;;;;;;;;10352038;28;20218;-81
2023/06/05 01:32:12;;;;;;;0.55;0.45;;;;;;;;;;10365736;28;20250;-82
2023/06/05 01:37:16;;;;;;;0.40;0.40;;;;;;;;;;10355892;28;21098;-81
2023/06/05 01:42:18;;;;;;;0.28;0.28;;;;;;;;;;10365534;28;20233;-80
2023/06/05 01:47:21;;;;;;;0.40;0.40;;;;;;;;;;10329414;28;20557;-83
2023/06/05 01:52:22;;;;;;;1.05;0.50;;;;;;;;;;10331738;28;20829;-83
2023/06/05 01:57:24;;;;;;;0.50;0.50;;;;;;;;;;10337418;28;20225;-81
2023/06/05 02:02:26;;;;;;;2.72;0.60;;;;;;;;;;10346484;28;22098;-83
2023/06/05 02:07:28;;;;;;;0.73;0.73;;;;;;;;;;10362382;28;20311;-81
2023/06/05 02:12:29;;;;;;;1.13;0.57;;;;;;;;;;10353846;28;20252;-81
2023/06/05 02:17:30;;;;;;;0.63;0.63;;;;;;;;;;10363101;28;20976;-80
2023/06/05 02:22:31;;;;;;;0.40;0.40;;;;;;;;;;10349876;28;21067;-79
2023/06/05 02:27:33;;;;;;;1.45;0.50;;;;;;;;;;10340928;28;20217;-82
2023/06/05 02:32:34;;;;;;;2.25;0.50;;;;;;;;;;10352910;28;20891;-83
2023/06/05 02:37:37;;;;;;;0.75;0.63;;;;;;;;;;10354450;28;20210;-82
2023/06/05 02:42:40;;;;;;;6.32;0.70;;;;;;;;;;10354482;28;20326;-80
2023/06/05 02:47:41;;;;;;;1.92;0.50;;;;;;;;;;10368766;28;20221;-83
2023/06/05 02:52:42;;;;;;;0.60;0.60;;;;;;;;;;10348289;28;20860;-81
2023/06/05 02:57:49;;;;;;;0.50;0.50;;;;;;;;;;10325766;28;20602;-81
2023/06/05 03:02:55;;;;;;;0.40;0.40;;;;;;;;;;10355970;28;20218;-82
2023/06/05 03:08:01;;;;;;;0.32;0.32;;;;;;;;;;10372363;28;20821;-82
2023/06/05 03:13:02;;;;;;;0.45;0.45;;;;;;;;;;10369639;28;20214;-81
2023/06/05 03:18:07;;;;;;;0.50;0.50;;;;;;;;;;10340206;28;20747;-80
2023/06/05 03:23:10;;;;;;;0.50;0.50;;;;;;;;;;10335298;28;20222;-79
2023/06/05 03:28:12;;;;;;;0.68;0.68;;;;;;;;;;10363609;28;21109;-81
2023/06/05 03:33:14;;;;;;;0.50;0.50;;;;;;;;;;10370960;28;21081;-83
2023/06/05 03:38:16;;;;;;;3.33;0.50;;;;;;;;;;10361462;28;20222;-82
2023/06/05 03:43:17;;;;;;;0.47;0.47;;;;;;;;;;10340779;28;20265;-82
2023/06/05 03:48:20;;;;;;;1.65;0.60;;;;;;;;;;10370107;28;20926;-81
2023/06/05 03:53:22;;;;;;;0.50;0.50;;;;;;;;;;10345662;28;20226;-82
2023/06/05 03:58:26;;;;;;;2.83;0.60;;;;;;;;;;10342192;28;20919;-80
2023/06/05 04:03:28;;;;;;;0.90;0.60;;;;;;;;;;10285235;28;20233;-80
2023/06/05 04:08:30;;;;;;;0.68;0.68;;;;;;;;;;10323098;28;20215;-82
2023/06/05 04:13:31;;;;;;;0.45;0.40;;;;;;;;;;10301432;28;20249;-81
2023/06/05 04:18:32;;;;;;;0.73;0.70;;;;;;;;;;10331885;28;20226;-82
2023/06/05 04:23:34;;;;;;;0.40;0.40;;;;;;;;;;10332133;28;20225;-81
2023/06/05 04:28:35;;;;;;;0.60;0.60;;;;;;;;;;10302672;28;20785;-80
2023/06/05 04:33:37;;;;;;;1.45;0.63;;;;;;;;;;10300368;28;20234;-82
2023/06/05 04:38:39;;;;;;;0.70;0.70;;;;;;;;;;10313918;28;20307;-80
2023/06/05 04:43:41;;;;;;;1.10;0.57;;;;;;;;;;10316063;28;20833;-81
2023/06/05 04:48:42;;;;;;;0.60;0.60;;;;;;;;;;10310294;28;20221;-81
2023/06/05 04:53:45;;;;;;;9.93;0.80;;;;;;;;;;10300090;28;21072;-81
2023/06/05 04:58:47;;;;;;;1.15;0.70;;;;;;;;;;10324791;28;20783;-82
2023/06/05 05:03:49;;;;;;;0.45;0.45;;;;;;;;;;10367564;28;20870;-82
2023/06/05 05:08:51;;;;;;;0.70;0.70;;;;;;;;;;10333872;28;20279;-83
2023/06/05 05:13:52;;;;;;;1.25;0.90;;;;;;;;;;10328213;28;20244;-80
2023/06/05 05:18:53;;;;;;;0.60;0.60;;;;;;;;;;10257630;28;20685;-82
2023/06/05 05:23:58;;;;;;;0.77;0.77;;;;;;;;;;10294447;28;20361;-80
2023/06/05 05:29:00;;;;;;;2.05;0.75;;;;;;;;;;10370120;28;20928;-82
2023/06/05 05:34:05;;;;;;;0.70;0.70;;;;;;;;;;10271066;28;20315;-82
2023/06/05 05:39:57;;;;;;;1.33;0.75;;;;;;;;;;10344291;28;20214;-80
2023/06/05 05:44:58;;;;;;;0.55;0.55;;;;;;;;;;10321022;28;20595;-80
2023/06/05 05:50:24;;;;;;;0.95;0.65;;;;;;;;;;10335306;28;20218;-81
2023/06/05 05:56:42;;;;;;;1.52;0.60;;;;;;;;;;10348891;28;20215;-81
2023/06/05 06:02:33;;;;;;;3.25;0.90;;;;;;;;;;10294316;28;20218;-80
2023/06/05 06:07:36;;;;;;;0.70;0.65;;;;;;;;;;10299515;28;20344;-81
2023/06/05 06:12:37;;;;;;;0.82;0.70;;;;;;;;;;10300248;28;20320;-83
2023/06/05 06:17:38;;;;;;;2.47;0.98;;;;;;;;;;10273457;28;21028;-80
2023/06/05 06:22:40;;;;;;;1.17;0.90;;;;;;;;;;10276165;28;20229;-81
2023/06/05 06:27:41;;;;;;;2.47;0.90;;;;;;;;;;10304019;28;20328;-81
2023/06/05 06:32:42;;;;;;;1.25;0.80;;;;;;;;;;10260359;28;20226;-80
2023/06/05 06:37:44;;;;;;;3.05;1.42;;;;;;;;;;10339558;28;21739;-82
2023/06/05 06:42:46;;;;;;;1.25;0.98;;;;;;;;;;10340036;28;20229;-83
2023/06/05 06:48:06;;;;;;;6.95;0.80;;;;;;;;;;10375517;28;20221;-82
2023/06/05 06:53:07;;;;;;;1.25;1.10;;;;;;;;;;10370870;28;20226;-83
2023/06/05 06:58:08;;;;;;;1.80;0.85;;;;;;;;;;10346504;28;20578;-81
2023/06/05 07:03:09;;;;;;;1.00;1.00;;;;;;;;;;10327633;28;20532;-79
2023/06/05 07:08:10;;;;;;;5.07;1.02;;;;;;;;;;10284338;28;20287;-82
2023/06/05 07:13:11;;;;;;;1.73;1.15;;;;;;;;;;10300381;28;21031;-82
2023/06/05 07:18:12;;;;;;;2.42;0.80;;;;;;;;;;10313963;28;20234;-81
2023/06/05 07:23:14;;;;;;;1.63;0.93;;;;;;;;;;10296769;28;20481;-82
2023/06/05 07:28:15;;;;;;;1.10;1.10;;;;;;;;;;10258118;28;20253;-80
2023/06/05 07:33:16;;;;;;;3.10;0.73;;;;;;;;;;10283551;28;22571;-81
2023/06/05 07:38:17;;;;;;;0.88;0.88;;;;;;;;;;10263978;28;20219;-83
2023/06/05 07:43:19;;;;;;;1.33;1.00;;;;;;;;;;10302878;28;20618;-81
2023/06/05 07:48:20;;;;;;;0.60;0.60;;;;;;;;;;10279608;28;20219;-80
2023/06/05 07:53:22;;;;;;;0.88;0.77;;;;;;;;;;10312669;28;21088;-80
2023/06/05 07:58:23;;;;;;;5.32;1.10;;;;;;;;;;10299599;28;20323;-80
2023/06/05 08:03:24;;;;;;;4.85;0.90;;;;;;;;;;10334824;28;22802;-78
2023/06/05 08:08:25;;;;;;;4.30;0.82;;;;;;;;;;10317836;28;20225;-80
2023/06/05 08:13:26;;;;;;;0.88;0.88;;;;;;;;;;10294569;28;21019;-83
2023/06/05 08:18:28;;;;;;;1.15;0.80;;;;;;;;;;10341363;28;20214;-81
2023/06/05 08:23:29;;;;;;;2.83;0.73;;;;;;;;;;10330693;28;20315;-80
2023/06/05 08:28:30;;;;;;;1.45;0.75;;;;;;;;;;10314839;28;21121;-80
2023/06/05 08:33:31;;;;;;;2.40;0.70;;;;;;;;;;10320891;28;20228;-81
2023/06/05 08:38:33;;;;;;;0.75;0.73;;;;;;;;;;10296204;28;20222;-81
2023/06/05 08:43:37;;;;;;;0.60;0.60;;;;;;;;;;10328021;28;20233;-83
2023/06/05 08:48:43;;;;;;;2.28;0.60;;;;;;;;;;10307769;28;20214;-81
2023/06/05 08:54:12;;;;;;;0.85;0.68;;;;;;;;;;10340248;28;20843;-80
2023/06/05 08:59:14;;;;;;;0.30;0.30;;;;;;;;;;10328236;28;20226;-83
2023/06/05 09:04:15;;;;;;;2.22;0.60;;;;;;;;;;10270879;28;20219;-81
2023/06/05 09:09:16;;;;;;;0.70;0.70;;;;;;;;;;10287723;28;20219;-79
2023/06/05 09:14:25;;;;;;;0.50;0.50;;;;;;;;;;10291134;28;20221;-82
2023/06/05 09:19:37;;;;;;;0.55;0.55;;;;;;;;;;10273465;28;20944;-80
2023/06/05 09:24:40;;;;;;;0.75;0.60;;;;;;;;;;10272105;28;20369;-81
2023/06/05 09:29:43;;;;;;;0.40;0.40;;;;;;;;;;10283315;28;20220;-83
2023/06/05 09:34:45;;;;;;;0.57;0.57;;;;;;;;;;10304108;28;21468;-83
2023/06/05 09:39:50;;;;;;;0.65;0.40;;;;;;;;;;10265836;28;20296;-82
2023/06/05 09:45:01;;;;;;;0.95;0.50;;;;;;;;;;10300157;28;20214;-80
2023/06/05 09:50:03;;;;;;;0.70;0.70;;;;;;;;;;10287880;28;20251;-81
2023/06/05 09:55:06;;;;;;;0.50;0.50;;;;;;;;;;10305296;28;20231;-83
2023/06/05 10:00:07;;;;;;;0.60;0.60;;;;;;;;;;10312632;28;20231;-81
2023/06/05 10:05:09;;;;;;;1.15;0.52;;;;;;;;;;10338400;28;20186;-84
2023/06/05 10:10:11;;;;;;;0.70;0.70;;;;;;;;;;10332056;28;20225;-83
2023/06/05 10:15:12;;;;;;;0.57;0.57;;;;;;;;;;10353178;28;20290;-80
2023/06/05 10:20:14;;;;;;;1.73;0.68;;;;;;;;;;10331025;28;21217;-82
2023/06/05 10:25:16;;;;;;;0.65;0.65;;;;;;;;;;10338538;28;20217;-82
2023/06/05 10:30:20;;;;;;;1.33;0.60;;;;;;;;;;10342876;28;20232;-83
2023/06/05 10:35:21;;;;;;;0.82;0.65;;;;;;;;;;10329337;28;21177;-81
2023/06/05 10:40:24;;;;;;;0.50;0.50;;;;;;;;;;10312310;28;20870;-80
2023/06/05 10:45:32;;;;;;;0.75;0.60;;;;;;;;;;10321826;28;20504;-80
2023/06/05 10:50:33;;;;;;;0.50;0.50;;;;;;;;;;10316460;28;20808;-83
2023/06/05 10:55:43;;;;;;;0.60;0.60;;;;;;;;;;10315688;28;20206;-81
2023/06/05 11:01:03;;;;;;;0.50;0.50;;;;;;;;;;10304343;28;23273;-83
2023/06/05 11:06:13;;;;;;;0.50;0.50;;;;;;;;;;10326164;28;20209;-82
2023/06/05 11:11:14;;;;;;;0.70;0.70;;;;;;;;;;10338537;28;20222;-82
2023/06/05 11:16:28;;;;;;;2.35;0.65;;;;;;;;;;10339316;28;21318;-80
2023/06/05 11:21:48;;;;;;;3.03;0.50;;;;;;;;;;10348166;28;20218;-83
2023/06/05 11:26:49;;;;;;;1.52;0.60;;;;;;;;;;10366893;28;20272;-83
2023/06/05 11:31:50;;;;;;;0.60;0.60;;;;;;;;;;10322800;28;20222;-80
2023/06/05 11:36:52;;;;;;;1.55;0.50;;;;;;;;;;10345836;28;20684;-81
2023/06/05 11:41:53;;;;;;;3.85;0.70;;;;;;;;;;10338043;28;21243;-81
2023/06/05 11:46:54;;;;;;;0.52;0.52;;;;;;;;;;10320773;28;20218;-83
2023/06/05 11:51:55;;;;;;;1.75;0.50;;;;;;;;;;10322791;28;20226;-80
2023/06/05 11:56:58;;;;;;;0.70;0.50;;;;;;;;;;10330661;28;21159;-81
2023/06/05 12:01:59;;;;;;;0.65;0.40;;;;;;;;;;10341052;28;21735;-81
2023/06/05 12:07:01;;;;;;;1.20;0.50;;;;;;;;;;10324758;28;20337;-81
2023/06/05 12:12:10;;;;;;;0.60;0.60;;;;;;;;;;10318432;28;20373;-83
2023/06/05 12:17:11;;;;;;;0.55;0.55;;;;;;;;;;10317050;28;20743;-83
2023/06/05 12:22:13;;;;;;;0.60;0.60;;;;;;;;;;10310098;28;20230;-83
2023/06/05 12:27:15;;;;;;;0.50;0.50;;;;;;;;;;10321527;28;20218;-82
2023/06/05 12:32:43;;;;;;;0.60;0.60;;;;;;;;;;10336664;28;20318;-82
2023/06/05 12:38:38;;;;;;;0.50;0.50;;;;;;;;;;10364369;28;20735;-83
2023/06/05 12:49:06;;;;;;;1.27;0.50;;;;;;;;;;10323001;28;20727;-82
2023/06/05 12:54:33;;;;;;;0.50;0.50;;;;;;;;;;10346143;28;20355;-82
2023/06/05 13:00:50;;;;;;;0.40;0.40;;;;;;;;;;10354218;28;20782;-83
2023/06/05 13:05:51;;;;;;;0.50;0.50;;;;;;;;;;10250329;28;20214;-83
2023/06/05 13:10:52;;;;;;;0.40;0.40;;;;;;;;;;10263507;28;23669;-82
2023/06/05 13:15:53;;;;;;;2.42;0.70;;;;;;;;;;10237998;28;20612;-84
2023/06/05 13:20:54;;;;;;;0.50;0.50;;;;;;;;;;10271163;28;21402;-81
2023/06/05 13:25:56;;;;;;;0.50;0.50;;;;;;;;;;10259523;28;20412;-82
2023/06/05 13:30:57;;;;;;;0.50;0.50;;;;;;;;;;10252879;28;20225;-80
2023/06/05 13:35:58;;;;;;;0.93;0.70;;;;;;;;;;10235810;28;20221;-83
2023/06/05 13:40:59;;;;;;;0.85;0.52;;;;;;;;;;10249526;28;20597;-83
2023/06/05 13:46:02;;;;;;;3.45;0.50;;;;;;;;;;10233582;28;20218;-85
2023/06/05 13:51:03;;;;;;;0.50;0.50;;;;;;;;;;10264459;28;20241;-83
2023/06/05 13:56:05;;;;;;;0.52;0.52;;;;;;;;;;10256698;28;20211;-80
2023/06/05 14:01:06;;;;;;;0.60;0.60;;;;;;;;;;10317223;28;20231;-83
2023/06/05 14:06:07;;;;;;;2.53;0.60;;;;;;;;;;10295092;28;20300;-82
2023/06/05 14:11:08;;;;;;;1.95;0.80;;;;;;;;;;10267611;28;20260;-82
2023/06/05 14:16:12;;;;;;;0.50;0.50;;;;;;;;;;10293877;28;20310;-82
2023/06/05 14:21:13;;;;;;;0.60;0.60;;;;;;;;;;10274538;28;20235;-82
2023/06/05 14:26:14;;;;;;;0.68;0.68;;;;;;;;;;10278384;28;20214;-82
2023/06/05 14:31:15;;;;;;;0.70;0.70;;;;;;;;;;10272636;28;20223;-83
2023/06/05 14:36:16;;;;;;;0.50;0.50;;;;;;;;;;10264182;28;20227;-81
2023/06/05 14:41:17;;;;;;;0.60;0.60;;;;;;;;;;10290581;28;21316;-82
2023/06/05 14:46:19;;;;;;;1.10;0.50;;;;;;;;;;10289500;28;20233;-83
2023/06/05 14:51:20;;;;;;;0.60;0.50;;;;;;;;;;10261289;28;20224;-80
2023/06/05 14:56:22;;;;;;;2.58;0.70;;;;;;;;;;10320260;28;20210;-82
2023/06/05 15:01:23;;;;;;;1.05;1.00;;;;;;;;;;10296314;28;20239;-81
2023/06/05 15:06:24;;;;;;;0.60;0.60;;;;;;;;;;10313534;28;20865;-82
2023/06/05 15:11:25;;;;;;;0.98;0.82;;;;;;;;;;10314550;28;20341;-82
2023/06/05 15:16:27;;;;;;;1.75;0.80;;;;;;;;;;10315502;28;21033;-83
2023/06/05 15:21:28;;;;;;;0.80;0.80;;;;;;;;;;10325536;28;20229;-84
2023/06/05 15:26:28;;;;;;;2.78;0.63;;;;;;;;;;10319449;28;20218;-83
2023/06/05 15:31:30;;;;;;;0.75;0.60;;;;;;;;;;10308587;28;20229;-83
2023/06/05 15:36:31;;;;;;;0.60;0.60;;;;;;;;;;10331594;28;21435;-80
2023/06/05 15:41:32;;;;;;;0.95;0.60;;;;;;;;;;10314490;28;20353;-84
2023/06/05 15:46:33;;;;;;;0.60;0.60;;;;;;;;;;10386938;28;20337;-83
2023/06/05 15:51:34;;;;;;;2.05;0.80;;;;;;;;;;10356811;28;20233;-80
2023/06/05 15:56:37;;;;;;;0.60;0.60;;;;;;;;;;10330532;28;20221;-84
2023/06/05 16:01:38;;;;;;;0.90;0.80;;;;;;;;;;10323740;28;20423;-83
2023/06/05 16:06:39;;;;;;;0.50;0.50;;;;;;;;;;10329197;28;20221;-85
2023/06/05 16:11:41;;;;;;;0.77;0.60;;;;;;;;;;10325384;28;20230;-85
2023/06/05 16:16:43;;;;;;;0.70;0.70;;;;;;;;;;10324586;28;20352;-82
2023/06/05 16:21:44;;;;;;;1.23;0.68;;;;;;;;;;10324812;28;20303;-81
2023/06/05 16:26:45;;;;;;;2.65;0.82;;;;;;;;;;10313722;28;20313;-83
2023/06/05 16:31:47;;;;;;;1.13;0.60;;;;;;;;;;10322538;28;20323;-81
2023/06/05 16:36:48;;;;;;;3.28;0.70;;;;;;;;;;10352349;28;20590;-82
2023/06/05 16:41:50;;;;;;;0.80;0.80;;;;;;;;;;10342517;28;20225;-84
2023/06/05 16:46:51;;;;;;;0.60;0.60;;;;;;;;;;10340736;28;23792;-83
2023/06/05 16:51:53;;;;;;;0.63;0.63;;;;;;;;;;10326301;28;20314;-84
2023/06/05 16:56:54;;;;;;;1.08;0.90;;;;;;;;;;10307839;28;20241;-84
2023/06/05 17:01:55;;;;;;;0.60;0.60;;;;;;;;;;10337463;28;20344;-80
2023/06/05 17:06:56;;;;;;;1.25;0.70;;;;;;;;;;10313443;28;20536;-81
2023/06/05 17:11:58;;;;;;;0.75;0.75;;;;;;;;;;10294024;28;21566;-80
2023/06/05 17:17:00;;;;;;;0.70;0.70;;;;;;;;;;10317246;28;20276;-81
2023/06/05 17:22:01;;;;;;;0.70;0.60;;;;;;;;;;10309578;28;21147;-80
2023/06/05 17:27:02;;;;;;;0.88;0.70;;;;;;;;;;10322586;28;20214;-79
2023/06/05 17:32:03;;;;;;;0.98;0.98;;;;;;;;;;10321648;28;20219;-84
2023/06/05 17:37:05;;;;;;;1.27;0.80;;;;;;;;;;10319557;28;20957;-81
2023/06/05 17:42:07;;;;;;;1.50;0.70;;;;;;;;;;10320306;28;20226;-82
2023/06/05 17:47:08;;;;;;;4.22;0.90;;;;;;;;;;10343911;28;20217;-80
2023/06/05 17:52:09;;;;;;;0.77;0.77;;;;;;;;;;10329549;28;20256;-82
2023/06/05 17:57:10;;;;;;;1.58;0.95;;;;;;;;;;10321373;28;20226;-80
2023/06/05 18:02:11;;;;;;;2.83;0.73;;;;;;;;;;10345910;28;20722;-80
2023/06/05 18:07:12;;;;;;;0.70;0.70;;;;;;;;;;10373507;28;20836;-81
2023/06/05 18:12:13;;;;;;;0.82;0.82;;;;;;;;;;10371844;28;20407;-80
2023/06/05 18:17:14;;;;;;;1.33;0.98;;;;;;;;;;10330719;28;20227;-79
2023/06/05 18:22:16;;;;;;;1.15;0.98;;;;;;;;;;10335568;28;21024;-78
2023/06/05 18:27:17;;;;;;;0.80;0.80;;;;;;;;;;10343643;28;20214;-80
2023/06/05 18:32:19;;;;;;;1.55;0.82;;;;;;;;;;10343579;28;20907;-81
2023/06/05 18:37:20;;;;;;;0.95;0.80;;;;;;;;;;10347741;28;21150;-81
2023/06/05 18:42:21;;;;;;;1.00;1.00;;;;;;;;;;10349842;28;20229;-82
2023/06/05 18:47:22;;;;;;;0.80;0.80;;;;;;;;;;10350371;28;21607;-81
2023/06/05 18:52:23;;;;;;;2.17;0.90;;;;;;;;;;10337188;28;20218;-79
2023/06/05 18:57:24;;;;;;;0.70;0.70;;;;;;;;;;10346190;28;20220;-81
2023/06/05 19:02:25;;;;;;;0.88;0.88;;;;;;;;;;10359462;28;20322;-80
2023/06/05 19:07:27;;;;;;;0.73;0.73;;;;;;;;;;10349939;28;20211;-80
2023/06/05 19:12:28;;;;;;;3.42;1.00;;;;;;;;;;10344763;28;20229;-81
2023/06/05 19:17:29;;;;;;;1.33;0.80;;;;;;;;;;10350035;28;20221;-78
2023/06/05 19:22:30;;;;;;;2.10;0.70;;;;;;;;;;10355126;28;20632;-79
2023/06/05 19:27:31;;;;;;;0.65;0.65;;;;;;;;;;10347899;28;20232;-77
2023/06/05 19:32:32;;;;;;;0.98;0.85;;;;;;;;;;10338705;28;20214;-78
2023/06/05 19:37:33;;;;;;;1.40;0.90;;;;;;;;;;10326557;28;20868;-79
2023/06/05 19:42:34;;;;;;;5.80;1.30;;;;;;;;;;10359344;28;20225;-79
2023/06/05 19:47:35;;;;;;;2.05;0.90;;;;;;;;;;10334572;28;21251;-79
2023/06/05 19:52:36;;;;;;;2.25;0.80;;;;;;;;;;10343026;28;20221;-79
2023/06/05 19:57:37;;;;;;;1.30;0.80;;;;;;;;;;10384367;28;20923;-80
2023/06/05 20:02:39;;;;;;;2.30;0.88;;;;;;;;;;10398601;28;20241;-81
2023/06/05 20:07:40;;;;;;;0.93;0.90;;;;;;;;;;10339948;28;20213;-78
2023/06/05 20:12:41;;;;;;;0.98;0.98;;;;;;;;;;10375935;28;20230;-78
2023/06/05 20:17:42;;;;;;;1.90;1.40;;;;;;;;;;10370147;28;21444;-78
2023/06/05 20:22:44;;;;;;;4.38;1.00;;;;;;;;;;10348805;28;20231;-77
2023/06/05 20:27:45;;;;;;;3.83;1.17;;;;;;;;;;10367051;28;20459;-78
2023/06/05 20:32:47;;;;;;;1.13;0.95;;;;;;;;;;10333249;28;20427;-79
2023/06/05 20:37:49;;;;;;;0.70;0.70;;;;;;;;;;10331323;28;20337;-79
2023/06/05 20:42:50;;;;;;;1.65;0.73;;;;;;;;;;10333640;28;20671;-77
2023/06/05 20:47:51;;;;;;;0.95;0.95;;;;;;;;;;10338380;28;20224;-78
2023/06/05 20:52:53;;;;;;;1.20;1.00;;;;;;;;;;10332634;28;20229;-79
2023/06/05 20:57:56;;;;;;;1.23;1.02;;;;;;;;;;10350602;28;20214;-79
2023/06/05 21:02:58;;;;;;;1.77;1.05;;;;;;;;;;10339369;28;20912;-78
2023/06/05 21:08:00;;;;;;;0.90;0.90;;;;;;;;;;10329380;28;20219;-78
2023/06/05 21:13:01;;;;;;;1.08;1.08;;;;;;;;;;10344782;28;21032;-77
2023/06/05 21:18:02;;;;;;;1.08;0.98;;;;;;;;;;10354148;28;20226;-79
2023/06/05 21:23:04;;;;;;;0.90;0.90;;;;;;;;;;10341948;28;20684;-79
2023/06/05 21:28:05;;;;;;;0.90;0.90;;;;;;;;;;10338552;28;22459;-78
2023/06/05 21:33:07;;;;;;;1.00;0.90;;;;;;;;;;10358443;28;20688;-78
2023/06/05 21:38:08;;;;;;;1.00;1.00;;;;;;;;;;10377016;28;20997;-77
2023/06/05 21:43:09;;;;;;;2.38;0.80;;;;;;;;;;10344554;28;20214;-78
2023/06/05 21:48:11;;;;;;;1.08;1.08;;;;;;;;;;10354311;28;21443;-77
2023/06/05 21:53:12;;;;;;;2.95;1.10;;;;;;;;;;10356893;28;20969;-77
2023/06/05 21:58:13;;;;;;;1.02;1.02;;;;;;;;;;10354683;28;20211;-78
2023/06/05 22:03:14;;;;;;;1.05;1.05;;;;;;;;;;10369033;28;21405;-79
2023/06/05 22:08:16;;;;;;;1.10;1.10;;;;;;;;;;10350191;28;20214;-78
2023/06/05 22:13:18;;;;;;;0.75;0.75;;;;;;;;;;10333015;28;20226;-79
2023/06/05 22:18:25;;;;;;;1.10;1.10;;;;;;;;;;10357644;28;20214;-78
2023/06/05 22:23:27;;;;;;;1.20;1.15;;;;;;;;;;10349531;28;20311;-79
2023/06/05 22:28:27;;;;;;;0.95;0.95;;;;;;;;;;10345690;28;20450;-78
2023/06/05 22:33:29;;;;;;;0.95;0.95;;;;;;;;;;10330599;28;20851;-78
2023/06/05 22:38:31;;;;;;;1.98;0.80;;;;;;;;;;10345086;28;20683;-78
2023/06/05 22:43:33;;;;;;;2.50;1.20;;;;;;;;;;10338159;28;20237;-78
2023/06/05 22:48:34;;;;;;;4.60;1.20;;;;;;;;;;10323871;28;20210;-78
2023/06/05 22:53:35;;;;;;;1.20;1.13;;;;;;;;;;10332401;28;20214;-79
2023/06/05 22:58:36;;;;;;;1.25;1.23;;;;;;;;;;10336765;28;20218;-78
2023/06/05 23:03:41;;;;;;;1.40;1.33;;;;;;;;;;10354958;28;20435;-77
2023/06/05 23:08:42;;;;;;;1.08;1.08;;;;;;;;;;10321448;28;20219;-78
2023/06/05 23:13:43;;;;;;;0.95;0.95;;;;;;;;;;10325596;28;20337;-77
2023/06/05 23:18:44;;;;;;;2.88;0.98;;;;;;;;;;10324836;28;21287;-77
2023/06/05 23:23:45;;;;;;;3.03;1.40;;;;;;;;;;10344179;28;20826;-77
2023/06/05 23:28:48;;;;;;;1.90;1.02;;;;;;;;;;10379443;28;22437;-75
2023/06/05 23:33:49;;;;;;;1.55;1.55;;;;;;;;;;10356418;28;20796;-78
2023/06/05 23:38:50;;;;;;;1.15;1.15;;;;;;;;;;10342945;28;20283;-77
2023/06/05 23:43:51;;;;;;;1.95;1.02;;;;;;;;;;10344763;28;20323;-77
2023/06/05 23:48:52;;;;;;;1.20;1.20;;;;;;;;;;10344504;28;20210;-76
2023/06/05 23:53:55;;;;;;;0.98;0.98;;;;;;;;;;10338891;28;21140;-78
2023/06/05 23:58:57;;;;;;;1.10;1.10;;;;;;;;;;10337497;28;20226;-78
